Time;durP1;ratioP1;P1;durP2;ratioP2;P2;SDS_P1;SDS_P2;PMS_P1;PMS_P2;Temp;Humidity;BMP_temperature;BMP_pressure;BME280_temperature;BME280_humidity;BME280_pressure;Samples;Min_cycle;Max_cycle;Signal;HPM_P1;HPM_P2
2023/04/15 00:01:25;;;;;;;1.85;1.48;;;;;;;14.41;57.91;100745.31;5064035;28;20404;-57
2023/04/15 00:03:53;;;;;;;1.55;1.45;;;;;;;14.41;57.92;100734.59;5063211;28;20036;-57
2023/04/15 00:06:19;;;;;;;1.85;1.40;;;;;;;14.41;57.73;100734.59;5062406;28;20042;-57
2023/04/15 00:08:45;;;;;;;3.10;1.45;;;;;;;14.40;58.08;100732.88;5064836;28;20052;-57
2023/04/15 00:11:11;;;;;;;1.98;1.35;;;;;;;14.41;58.18;100728.34;5061573;28;20036;-56
2023/04/15 00:13:37;;;;;;;1.75;1.35;;;;;;;14.41;58.16;100731.91;5064052;28;20040;-57
2023/04/15 00:16:03;;;;;;;2.22;1.25;;;;;;;14.40;58.08;100738.22;5064275;28;20363;-57
2023/04/15 00:18:28;;;;;;;4.82;1.58;;;;;;;14.40;58.08;100738.22;5064205;28;20036;-57
2023/04/15 00:20:54;;;;;;;2.05;1.65;;;;;;;14.39;58.17;100733.88;5066527;28;20036;-57
2023/04/15 00:23:19;;;;;;;2.63;1.38;;;;;;;14.40;58.33;100726.66;5060391;28;20078;-57
2023/04/15 00:25:45;;;;;;;4.97;1.67;;;;;;;14.40;58.37;100738.22;5067965;28;20016;-57
2023/04/15 00:28:11;;;;;;;2.58;1.83;;;;;;;14.41;58.74;100723.88;5062417;28;20029;-57
2023/04/15 00:30:36;;;;;;;1.98;1.40;;;;;;;14.40;58.25;100727.50;5060167;28;20614;-57
2023/04/15 00:33:02;;;;;;;3.35;1.52;;;;;;;14.41;58.35;100728.34;5060119;28;20048;-56
2023/04/15 00:35:28;;;;;;;5.60;1.88;;;;;;;14.40;58.68;100729.34;5062156;28;20111;-56
2023/04/15 00:37:53;;;;;;;2.25;1.30;;;;;;;14.39;58.48;100728.50;5061036;28;20036;-57
2023/04/15 00:40:20;;;;;;;1.98;1.20;;;;;;;14.40;58.46;100735.56;5064860;28;20112;-57
2023/04/15 00:42:46;;;;;;;2.42;1.25;;;;;;;14.40;58.65;100737.38;5059937;28;20029;-57
2023/04/15 00:45:12;;;;;;;5.55;1.58;;;;;;;14.40;58.32;100734.72;5060145;28;20090;-57
2023/04/15 00:47:40;;;;;;;4.50;1.58;;;;;;;14.39;58.20;100730.31;5065322;28;20402;-57
2023/04/15 00:50:06;;;;;;;5.20;1.60;;;;;;;14.40;58.63;100726.66;5062900;28;20020;-57
2023/04/15 00:52:31;;;;;;;2.55;1.60;;;;;;;14.39;58.44;100731.19;5063820;28;20628;-57
2023/04/15 00:54:57;;;;;;;2.88;1.50;;;;;;;14.39;58.47;100736.53;5061977;28;20088;-57
2023/04/15 00:57:23;;;;;;;2.78;1.48;;;;;;;14.38;58.45;100733.97;5059071;28;20386;-57
2023/04/15 00:59:50;;;;;;;1.77;1.38;;;;;;;14.38;58.41;100732.16;5058910;28;20385;-57
2023/04/15 01:02:15;;;;;;;2.55;1.75;;;;;;;14.38;58.26;100733.97;5062851;28;20028;-58
2023/04/15 01:04:41;;;;;;;3.97;1.50;;;;;;;14.38;58.79;100733.97;5063338;28;20051;-57
2023/04/15 01:07:06;;;;;;;3.70;1.60;;;;;;;14.36;58.47;100726.06;5049021;28;20101;-56
2023/04/15 01:09:32;;;;;;;2.03;1.38;;;;;;;14.36;58.52;100726.06;5058840;28;20029;-56
2023/04/15 01:11:57;;;;;;;2.63;1.35;;;;;;;14.36;58.93;100728.75;5059688;28;20040;-57
2023/04/15 01:14:23;;;;;;;5.70;1.58;;;;;;;14.36;58.79;100723.38;5060805;28;20043;-57
2023/04/15 01:16:48;;;;;;;1.58;1.35;;;;;;;14.36;58.86;100726.06;5063936;28;20482;-57
2023/04/15 01:19:16;;;;;;;3.17;1.80;;;;;;;14.35;58.61;100723.50;5058452;28;20029;-56
2023/04/15 01:21:42;;;;;;;2.05;1.48;;;;;;;14.35;58.88;100721.66;5064369;28;20024;-57
2023/04/15 01:24:09;;;;;;;3.22;1.70;;;;;;;14.34;58.90;100721.81;5059486;28;20043;-56
2023/04/15 01:26:39;;;;;;;2.55;1.40;;;;;;;14.35;58.48;100729.72;5057044;28;20042;-56
2023/04/15 01:29:05;;;;;;;2.72;1.50;;;;;;;14.34;58.58;100722.66;5067797;28;20024;-57
2023/04/15 01:31:31;;;;;;;2.63;1.45;;;;;;;14.34;58.79;100720.00;5059569;28;20033;-57
2023/04/15 01:33:56;;;;;;;2.67;1.50;;;;;;;14.34;58.79;100725.34;5062918;28;20035;-57
2023/04/15 01:36:22;;;;;;;4.00;1.50;;;;;;;14.33;58.91;100723.63;5061895;28;20039;-57
2023/04/15 01:38:47;;;;;;;1.92;1.63;;;;;;;14.33;58.82;100723.63;5058662;28;20085;-56
2023/04/15 01:41:13;;;;;;;3.58;1.73;;;;;;;14.33;58.54;100728.97;5063571;28;20077;-57
2023/04/15 01:43:38;;;;;;;2.65;1.50;;;;;;;14.34;58.56;100735.22;5058881;28;20056;-56
2023/04/15 01:46:05;;;;;;;1.70;1.50;;;;;;;14.32;58.72;100721.94;5065901;28;20038;-57
2023/04/15 01:48:31;;;;;;;3.05;1.52;;;;;;;14.33;58.90;100725.47;5056816;28;20029;-56
2023/04/15 01:50:57;;;;;;;4.05;2.03;;;;;;;14.32;58.51;100721.94;5057179;28;20021;-57
2023/04/15 01:53:24;;;;;;;2.63;1.60;;;;;;;14.31;58.30;100720.22;5060096;28;20043;-57
2023/04/15 01:55:50;;;;;;;3.28;1.52;;;;;;;14.32;58.63;100723.75;5056833;28;20041;-57
2023/04/15 01:58:16;;;;;;;4.00;1.63;;;;;;;14.31;58.44;100722.91;5068839;28;20028;-56
2023/04/15 02:00:42;;;;;;;2.30;1.25;;;;;;;14.31;58.81;100720.22;5053887;28;20033;-57
2023/04/15 02:03:08;;;;;;;1.95;1.40;;;;;;;14.31;58.39;100720.22;5065058;28;20181;-57
2023/04/15 02:05:34;;;;;;;3.58;1.52;;;;;;;14.30;58.84;100721.22;5058690;28;20118;-57
2023/04/15 02:07:59;;;;;;;4.78;1.70;;;;;;;14.30;58.88;100726.56;5059792;28;20021;-57
2023/04/15 02:10:25;;;;;;;2.47;1.20;;;;;;;14.31;58.63;100727.41;5063684;28;20469;-57
2023/04/15 02:12:50;;;;;;;2.28;1.33;;;;;;;14.31;58.61;100724.75;5059218;28;20385;-57
2023/04/15 02:15:16;;;;;;;1.60;1.50;;;;;;;14.30;58.44;100729.25;5066108;28;20056;-57
2023/04/15 02:17:44;;;;;;;3.53;1.67;;;;;;;14.30;58.58;100731.06;5052866;28;20063;-56
2023/04/15 02:20:10;;;;;;;2.55;1.60;;;;;;;14.30;58.65;100741.78;5059081;28;20111;-57
2023/04/15 02:22:36;;;;;;;2.63;1.35;;;;;;;14.29;58.78;100738.25;5063401;28;20159;-56
2023/04/15 02:25:02;;;;;;;1.80;1.50;;;;;;;14.29;58.60;100738.25;5059693;28;20021;-57
2023/04/15 02:27:27;;;;;;;2.80;1.63;;;;;;;14.28;58.56;100741.91;5067664;28;20409;-57
2023/04/15 02:29:53;;;;;;;2.47;1.50;;;;;;;14.28;58.87;100736.56;5052577;28;20057;-57
2023/04/15 02:32:20;;;;;;;3.20;1.50;;;;;;;14.28;59.03;100744.59;5058946;28;20664;-57
2023/04/15 02:34:46;;;;;;;2.90;1.67;;;;;;;14.27;58.73;100741.03;5061530;28;20028;-57
2023/04/15 02:37:12;;;;;;;2.50;1.48;;;;;;;14.26;58.74;100744.72;5053621;28;20363;-57
2023/04/15 02:39:38;;;;;;;2.30;1.30;;;;;;;14.26;58.63;100742.03;5057630;28;20489;-57
2023/04/15 02:42:04;;;;;;;2.28;1.83;;;;;;;14.27;58.87;100748.25;5060173;28;20025;-57
2023/04/15 02:44:31;;;;;;;2.70;1.52;;;;;;;14.26;58.99;100749.22;5064736;28;20057;-57
2023/04/15 02:46:57;;;;;;;2.05;1.48;;;;;;;14.25;58.64;100753.72;5063907;28;20040;-57
2023/04/15 02:49:22;;;;;;;2.33;1.50;;;;;;;14.26;58.56;100757.25;5054108;28;20078;-57
2023/04/15 02:51:48;;;;;;;1.35;1.25;;;;;;;14.25;58.77;100759.06;5058873;28;20031;-57
2023/04/15 02:54:18;;;;;;;3.42;1.70;;;;;;;14.25;58.82;100767.09;5057299;28;20032;-57
2023/04/15 02:56:44;;;;;;;2.00;1.35;;;;;;;14.25;58.97;100771.63;5060041;28;20032;-56
2023/04/15 02:59:11;;;;;;;1.95;1.40;;;;;;;14.24;58.61;100762.75;5065106;28;20538;-57
2023/04/15 03:01:36;;;;;;;3.15;1.60;;;;;;;14.25;58.74;100768.94;5057838;28;20036;-57
2023/04/15 03:04:01;;;;;;;2.20;1.48;;;;;;;14.24;58.58;100768.09;5061001;28;20047;-57
2023/04/15 03:06:27;;;;;;;1.95;1.52;;;;;;;14.24;59.07;100767.22;5058217;28;20025;-57
2023/04/15 03:08:52;;;;;;;1.92;1.70;;;;;;;14.23;58.86;100763.69;5067700;28;20481;-56
2023/04/15 03:11:18;;;;;;;2.25;1.50;;;;;;;14.23;58.72;100769.06;5059776;28;20037;-57
2023/04/15 03:13:44;;;;;;;1.40;1.30;;;;;;;14.22;58.81;100764.69;5062336;28;20032;-56
2023/04/15 03:16:10;;;;;;;1.80;1.52;;;;;;;14.22;58.92;100762.00;5063156;28;20508;-56
2023/04/15 03:18:35;;;;;;;1.83;1.55;;;;;;;14.22;59.06;100767.38;5054993;28;20032;-57
2023/04/15 03:21:01;;;;;;;3.25;1.63;;;;;;;14.22;58.88;100769.16;5056817;28;20021;-57
2023/04/15 03:23:27;;;;;;;3.78;1.77;;;;;;;14.21;59.06;100768.34;5062168;28;20061;-57
2023/04/15 03:25:55;;;;;;;1.40;1.30;;;;;;;14.21;59.07;100775.53;5062136;28;20032;-57
2023/04/15 03:28:21;;;;;;;2.45;1.38;;;;;;;14.20;58.60;100772.00;5060959;28;20120;-57
2023/04/15 03:30:46;;;;;;;2.17;1.40;;;;;;;14.21;59.07;100770.16;5057760;28;20132;-57
2023/04/15 03:33:11;;;;;;;2.10;1.80;;;;;;;14.20;58.67;100777.34;5058554;28;20035;-57
2023/04/15 03:35:37;;;;;;;2.30;1.58;;;;;;;14.20;58.60;100780.03;5060449;28;20033;-57
2023/04/15 03:38:02;;;;;;;1.75;1.52;;;;;;;14.20;58.74;100784.50;5055164;28;20454;-57
2023/04/15 03:40:28;;;;;;;1.40;1.30;;;;;;;14.19;59.05;100794.38;5059512;28;20431;-57
2023/04/15 03:42:53;;;;;;;1.77;1.50;;;;;;;14.18;59.13;100786.47;5056657;28;20029;-56
2023/04/15 03:45:19;;;;;;;1.95;1.42;;;;;;;14.19;58.77;100790.84;5057391;28;20083;-57
2023/04/15 03:47:44;;;;;;;1.60;1.50;;;;;;;14.18;58.90;100791.81;5063451;28;20107;-56
2023/04/15 03:50:10;;;;;;;1.73;1.63;;;;;;;14.18;59.03;100795.34;5064859;28;20020;-57
2023/04/15 03:52:35;;;;;;;1.90;1.40;;;;;;;14.18;59.19;100807.88;5060257;28;20151;-57
2023/04/15 03:55:01;;;;;;;1.95;1.60;;;;;;;14.17;58.55;100807.03;5062147;28;20111;-57
2023/04/15 03:57:26;;;;;;;1.85;1.45;;;;;;;14.16;58.70;100805.31;5064191;28;20024;-56
2023/04/15 03:59:52;;;;;;;1.60;1.50;;;;;;;14.17;58.53;100808.88;5061405;28;20025;-57
2023/04/15 04:02:17;;;;;;;2.13;1.40;;;;;;;14.16;58.61;100818.72;5062443;28;20107;-57
2023/04/15 04:04:43;;;;;;;1.75;1.30;;;;;;;14.16;58.89;100815.19;5064858;28;20033;-56
2023/04/15 04:07:14;;;;;;;2.83;1.42;;;;;;;14.16;59.02;100817.88;5057616;28;20029;-57
2023/04/15 04:09:40;;;;;;;2.72;1.65;;;;;;;14.16;58.79;100821.38;5065394;28;20029;-57
2023/04/15 04:12:06;;;;;;;1.80;1.35;;;;;;;14.16;58.52;100833.94;5064551;28;20035;-57
2023/04/15 04:14:31;;;;;;;1.73;1.40;;;;;;;14.15;58.78;100835.78;5063205;28;20120;-57
2023/04/15 04:16:57;;;;;;;2.88;1.85;;;;;;;14.15;58.47;100845.63;5062778;28;20055;-56
2023/04/15 04:19:22;;;;;;;1.90;1.48;;;;;;;14.14;59.42;100839.41;5057657;28;20033;-56
2023/04/15 04:21:47;;;;;;;3.22;1.48;;;;;;;14.13;58.95;100840.41;5059302;28;20037;-56
2023/04/15 04:24:13;;;;;;;2.22;1.60;;;;;;;14.14;58.65;100844.75;5059683;28;20064;-56
2023/04/15 04:26:38;;;;;;;1.80;1.35;;;;;;;14.14;58.70;100846.59;5065898;28;20033;-57
2023/04/15 04:29:03;;;;;;;1.60;1.50;;;;;;;14.14;58.64;100851.94;5059239;28;20032;-57
2023/04/15 04:31:29;;;;;;;2.42;1.52;;;;;;;14.13;58.54;100859.13;5064642;28;20029;-57
2023/04/15 04:33:54;;;;;;;2.50;1.80;;;;;;;14.13;58.71;100858.28;5066309;28;20111;-57
2023/04/15 04:36:20;;;;;;;1.58;1.48;;;;;;;14.13;59.07;100863.66;5061392;28;20055;-56
2023/04/15 04:38:45;;;;;;;2.53;1.58;;;;;;;14.13;58.85;100874.38;5063713;28;20036;-57
2023/04/15 04:41:10;;;;;;;2.35;1.73;;;;;;;14.12;59.21;100867.28;5061744;28;20032;-57
2023/04/15 04:43:36;;;;;;;3.67;1.90;;;;;;;14.13;58.86;100879.72;5057411;28;20059;-56
2023/04/15 04:46:01;;;;;;;2.25;1.48;;;;;;;14.12;58.80;100875.31;5061007;28;20044;-56
2023/04/15 04:48:27;;;;;;;1.58;1.48;;;;;;;14.12;59.17;100878.84;5061479;28;20118;-56
2023/04/15 04:50:52;;;;;;;1.63;1.40;;;;;;;14.12;58.78;100889.56;5065216;28;20032;-56
2023/04/15 04:53:17;;;;;;;2.55;1.65;;;;;;;14.11;59.24;100892.34;5068702;28;20025;-56
2023/04/15 04:55:43;;;;;;;2.75;1.90;;;;;;;14.11;59.16;100895.91;5051311;28;20119;-56
2023/04/15 04:58:08;;;;;;;3.33;1.60;;;;;;;14.11;59.15;100892.34;5070557;28;20041;-56
2023/04/15 05:00:33;;;;;;;2.15;1.45;;;;;;;14.09;59.18;100900.53;5055813;28;20025;-57
2023/04/15 05:02:59;;;;;;;1.55;1.40;;;;;;;14.10;58.71;100904.03;5065656;28;20123;-57
2023/04/15 05:05:25;;;;;;;1.65;1.55;;;;;;;14.08;59.08;100896.97;5063383;28;20112;-57
2023/04/15 05:07:50;;;;;;;2.03;1.83;;;;;;;14.08;58.88;100896.97;5057084;28;20083;-57
2023/04/15 05:10:17;;;;;;;1.33;1.23;;;;;;;14.08;59.26;100905.00;5067269;28;20023;-57
2023/04/15 05:12:42;;;;;;;2.08;1.60;;;;;;;14.07;58.86;100906.00;5052531;28;20128;-56
2023/04/15 05:15:08;;;;;;;1.40;1.25;;;;;;;14.07;58.96;100913.19;5069110;28;20095;-57
2023/04/15 05:17:34;;;;;;;2.63;1.30;;;;;;;14.08;58.91;100914.88;5061799;28;20366;-56
2023/04/15 05:20:00;;;;;;;3.40;1.70;;;;;;;14.07;58.81;100914.03;5067456;28;20025;-57
2023/04/15 05:22:25;;;;;;;1.88;1.67;;;;;;;14.05;59.14;100924.00;5067597;28;20041;-57
2023/04/15 05:24:51;;;;;;;3.47;1.70;;;;;;;14.08;58.71;100930.94;5052433;28;20482;-56
2023/04/15 05:27:17;;;;;;;2.35;1.60;;;;;;;14.08;58.90;100941.63;5067866;28;20035;-56
2023/04/15 05:29:43;;;;;;;1.75;1.55;;;;;;;14.06;58.78;100933.72;5062755;28;20517;-56
2023/04/15 05:32:09;;;;;;;1.50;1.40;;;;;;;14.07;59.18;100948.81;5067155;28;20064;-56
2023/04/15 05:34:34;;;;;;;2.65;1.60;;;;;;;14.07;59.31;100951.50;5067174;28;20035;-57
2023/04/15 05:37:00;;;;;;;2.17;1.60;;;;;;;14.06;58.85;100949.78;5063470;28;20037;-57
2023/04/15 05:39:25;;;;;;;1.83;1.50;;;;;;;14.05;58.84;100950.78;5062418;28;20028;-57
2023/04/15 05:41:51;;;;;;;2.20;2.00;;;;;;;14.07;59.37;100956.84;5064869;28;20041;-57
2023/04/15 05:44:16;;;;;;;1.88;1.60;;;;;;;14.05;59.22;100953.44;5054078;28;20044;-57
2023/04/15 05:46:42;;;;;;;2.53;1.45;;;;;;;14.05;59.29;100969.50;5066843;28;20032;-57
2023/04/15 05:49:07;;;;;;;2.25;1.80;;;;;;;14.04;59.21;100962.44;5058974;28;20028;-57
2023/04/15 05:51:32;;;;;;;2.10;1.38;;;;;;;14.04;59.02;100970.47;5060916;28;20082;-56
2023/04/15 05:53:58;;;;;;;2.25;1.70;;;;;;;14.06;59.25;100971.19;5037389;28;20060;-57
2023/04/15 05:56:25;;;;;;;2.70;1.90;;;;;;;14.05;59.10;100974.88;5053963;28;20044;-57
2023/04/15 05:58:51;;;;;;;2.22;1.42;;;;;;;14.04;59.12;100975.81;5062043;28;20033;-56
2023/04/15 06:01:16;;;;;;;1.90;1.70;;;;;;;14.04;58.87;100983.84;5059700;28;20047;-57
2023/04/15 06:03:42;;;;;;;2.70;1.50;;;;;;;14.04;58.93;100986.53;5067070;28;20033;-57
2023/04/15 06:06:08;;;;;;;1.88;1.20;;;;;;;14.05;59.33;100990.06;5060546;28;20037;-57
2023/04/15 06:08:34;;;;;;;2.60;1.52;;;;;;;14.04;58.88;100994.56;5051590;28;20039;-57
2023/04/15 06:10:59;;;;;;;2.58;1.70;;;;;;;14.04;59.30;100997.25;5057131;28;20024;-57
2023/04/15 06:13:25;;;;;;;2.75;1.60;;;;;;;14.04;59.23;101013.31;5069202;28;20063;-57
2023/04/15 06:15:51;;;;;;;1.85;1.75;;;;;;;14.04;59.19;101015.97;5052832;28;20488;-57
2023/04/15 06:18:16;;;;;;;3.20;1.70;;;;;;;14.04;59.41;101005.28;5070186;28;20111;-57
2023/04/15 06:20:42;;;;;;;1.50;1.40;;;;;;;14.04;59.50;101015.97;5060681;28;20478;-57
2023/04/15 06:23:07;;;;;;;2.25;1.67;;;;;;;14.05;59.44;101025.72;5055049;28;20375;-56
2023/04/15 06:25:33;;;;;;;4.47;1.98;;;;;;;14.06;59.45;101032.78;5060324;28;20056;-57
2023/04/15 06:27:58;;;;;;;3.53;1.90;;;;;;;14.06;60.02;101032.78;5066340;28;20039;-57
2023/04/15 06:30:23;;;;;;;4.32;1.42;;;;;;;14.08;59.95;101038.03;5046131;28;20447;-57
2023/04/15 06:32:49;;;;;;;3.35;1.85;;;;;;;14.08;59.75;101036.19;5059820;28;20043;-56
2023/04/15 06:35:14;;;;;;;3.50;2.05;;;;;;;14.07;60.27;101042.53;5040645;28;20028;-57
2023/04/15 06:37:40;;;;;;;3.17;1.95;;;;;;;14.08;59.77;101044.22;5040383;28;20029;-57
2023/04/15 06:40:07;;;;;;;1.77;1.67;;;;;;;14.08;59.94;101049.59;5054232;28;20044;-57
2023/04/15 06:42:33;;;;;;;1.70;1.50;;;;;;;14.10;59.92;101057.50;5063990;28;20102;-57
2023/04/15 06:44:58;;;;;;;2.25;1.42;;;;;;;14.08;60.35;101065.66;5060393;28;20040;-57
2023/04/15 06:47:24;;;;;;;1.88;1.58;;;;;;;14.10;60.06;101059.34;5063054;28;20442;-57
2023/04/15 06:49:49;;;;;;;3.03;1.50;;;;;;;14.11;59.94;101069.06;5058319;28;20055;-56
2023/04/15 06:52:15;;;;;;;2.55;1.73;;;;;;;14.11;60.07;101069.94;5066031;28;20025;-57
2023/04/15 06:54:41;;;;;;;2.22;1.90;;;;;;;14.10;59.98;101076.25;5066609;28;20029;-57
2023/04/15 06:57:08;;;;;;;1.80;1.70;;;;;;;14.12;60.38;101076.13;5054701;28;20075;-57
2023/04/15 06:59:33;;;;;;;4.75;1.88;;;;;;;14.12;60.26;101074.31;5065092;28;20032;-57
2023/04/15 07:01:58;;;;;;;2.00;1.80;;;;;;;14.14;60.38;101090.25;5062151;28;20037;-57
2023/04/15 07:04:24;;;;;;;3.20;1.83;;;;;;;14.14;60.14;101090.25;5063691;28;20421;-57
2023/04/15 07:06:49;;;;;;;2.60;1.80;;;;;;;14.14;60.51;101087.59;5065200;28;20039;-57
2023/04/15 07:09:15;;;;;;;2.08;1.65;;;;;;;14.15;60.48;101100.88;5037300;28;20032;-57
2023/04/15 07:11:41;;;;;;;3.97;1.65;;;;;;;14.16;60.40;101093.69;5057532;28;20029;-56
2023/04/15 07:14:06;;;;;;;4.40;1.98;;;;;;;14.17;60.09;101100.75;5059182;28;20033;-57
2023/04/15 07:16:31;;;;;;;2.22;1.70;;;;;;;14.17;60.34;101111.47;5060583;28;20043;-57
2023/04/15 07:18:57;;;;;;;2.10;1.90;;;;;;;14.18;60.12;101105.13;5062754;28;20060;-57
2023/04/15 07:21:23;;;;;;;2.20;1.80;;;;;;;14.19;60.27;101109.53;5054764;28;20064;-57
2023/04/15 07:23:48;;;;;;;2.17;1.92;;;;;;;14.19;59.99;101109.53;5062318;28;20040;-56
2023/04/15 07:26:14;;;;;;;2.85;1.92;;;;;;;14.20;60.05;101112.09;5061751;28;20032;-56
2023/04/15 07:28:40;;;;;;;6.25;2.13;;;;;;;14.20;60.33;101114.78;5070832;28;20024;-57
2023/04/15 07:31:05;;;;;;;2.80;2.38;;;;;;;14.21;60.16;101113.78;5061547;28;20095;-57
2023/04/15 07:33:31;;;;;;;3.40;2.47;;;;;;;14.23;60.35;101127.06;5068752;28;20088;-56
2023/04/15 07:35:57;;;;;;;9.68;2.30;;;;;;;14.23;60.33;101133.28;5060360;28;20029;-57
2023/04/15 07:38:22;;;;;;;2.58;2.13;;;;;;;14.24;60.37;101144.84;5068733;28;20062;-57
2023/04/15 07:40:48;;;;;;;4.25;2.10;;;;;;;14.24;60.18;101139.47;5038509;28;20025;-57
2023/04/15 07:43:14;;;;;;;5.75;2.00;;;;;;;14.24;60.67;101145.72;5068428;28;20111;-57
2023/04/15 07:45:39;;;;;;;3.35;2.50;;;;;;;14.26;61.04;101145.59;5065491;28;20219;-57
2023/04/15 07:48:05;;;;;;;3.05;2.72;;;;;;;14.26;60.84;101153.63;5051598;28;20020;-56
2023/04/15 07:50:31;;;;;;;3.58;2.15;;;;;;;14.27;61.22;101149.97;5068605;28;20074;-57
2023/04/15 07:52:56;;;;;;;6.63;2.13;;;;;;;14.26;60.80;101153.63;5071640;28;20041;-57
2023/04/15 07:55:22;;;;;;;2.72;2.33;;;;;;;14.28;60.99;101152.53;5061810;28;20033;-57
2023/04/15 07:57:49;;;;;;;3.50;2.45;;;;;;;14.28;60.87;101162.41;5067329;28;20465;-56
2023/04/15 08:00:15;;;;;;;2.53;2.33;;;;;;;14.30;60.80;101164.94;5061568;28;20135;-57
2023/04/15 08:02:45;;;;;;;2.58;2.30;;;;;;;14.30;61.16;101154.22;5063131;28;20471;-57
2023/04/15 08:05:11;;;;;;;3.78;2.80;;;;;;;14.28;61.00;101168.59;5067044;28;20036;-57
2023/04/15 08:07:38;;;;;;;3.92;2.30;;;;;;;14.31;61.03;101172.03;5069483;28;20025;-57
2023/04/15 08:10:04;;;;;;;3.47;2.50;;;;;;;14.31;61.21;101172.03;5059062;28;20541;-57
2023/04/15 08:12:30;;;;;;;3.35;2.38;;;;;;;14.31;61.27;101178.22;5063612;28;20108;-57
2023/04/15 08:14:56;;;;;;;3.13;1.92;;;;;;;14.32;61.29;101179.94;5068815;28;20036;-57
2023/04/15 08:17:22;;;;;;;4.82;2.50;;;;;;;14.31;60.98;101180.91;5059202;28;20112;-57
2023/04/15 08:19:47;;;;;;;4.38;2.72;;;;;;;14.33;61.29;101192.38;5060618;28;20486;-57
2023/04/15 08:22:13;;;;;;;4.85;2.45;;;;;;;14.32;61.44;101196.03;5050869;28;20394;-57
2023/04/15 08:24:39;;;;;;;4.75;2.75;;;;;;;14.32;61.24;101201.38;5063789;28;20113;-57
2023/04/15 08:27:04;;;;;;;4.50;2.40;;;;;;;14.34;61.01;101198.59;5061281;28;20055;-57
2023/04/15 08:29:31;;;;;;;4.93;2.47;;;;;;;14.33;61.25;101195.03;5064248;28;20028;-57
2023/04/15 08:31:56;;;;;;;5.18;2.28;;;;;;;14.34;61.00;101212.84;5064333;28;20094;-57
2023/04/15 08:34:23;;;;;;;6.10;2.55;;;;;;;14.35;61.05;101211.00;5065164;28;20024;-57
2023/04/15 08:36:48;;;;;;;4.28;2.65;;;;;;;14.35;61.31;101217.22;5066524;28;20068;-56
2023/04/15 08:39:13;;;;;;;6.25;2.72;;;;;;;14.35;61.11;101214.53;5052991;28;20423;-57
2023/04/15 08:42:09;;;;;;;6.30;3.00;;;;;;;14.37;61.14;101225.13;5057240;28;20035;-56
2023/04/15 08:44:39;;;;;;;4.10;2.40;;;;;;;14.38;60.79;101232.22;5061633;28;20107;-56
2023/04/15 08:47:07;;;;;;;5.10;2.15;;;;;;;14.38;60.79;101232.22;5060589;28;20055;-56
2023/04/15 08:49:37;;;;;;;3.22;2.50;;;;;;;14.37;60.65;101230.50;5068766;28;20151;-57
2023/04/15 08:52:03;;;;;;;11.20;2.80;;;;;;;14.38;60.85;101249.13;5064407;28;20032;-57
2023/04/15 08:54:29;;;;;;;2.92;2.13;;;;;;;14.39;60.73;101245.50;5064840;28;20275;-57
2023/04/15 08:56:57;;;;;;;3.53;2.67;;;;;;;14.38;60.47;101254.50;5065651;28;20020;-57
2023/04/15 08:59:23;;;;;;;3.38;2.13;;;;;;;14.39;60.86;101255.34;5057710;28;20029;-57
2023/04/15 09:01:52;;;;;;;5.15;2.25;;;;;;;14.40;60.46;101263.28;5069256;28;20024;-57
2023/04/15 09:04:17;;;;;;;3.83;1.92;;;;;;;14.40;60.76;101275.81;5063027;28;20108;-57
2023/04/15 09:06:43;;;;;;;4.20;2.00;;;;;;;14.40;60.61;101273.16;5066787;28;20112;-57
2023/04/15 09:09:08;;;;;;;4.32;2.40;;;;;;;14.40;60.34;101271.31;5046842;28;20098;-57
2023/04/15 09:11:35;;;;;;;2.80;2.03;;;;;;;14.42;60.40;101277.41;5059281;28;20033;-57
2023/04/15 09:14:00;;;;;;;6.82;2.05;;;;;;;14.42;60.50;101279.25;5060778;28;21398;-57
2023/04/15 09:16:27;;;;;;;5.22;1.90;;;;;;;14.42;60.33;101285.44;5062202;28;20056;-57
2023/04/15 09:18:52;;;;;;;3.10;2.05;;;;;;;14.43;60.29;101289.84;5066714;28;20033;-57
2023/04/15 09:21:18;;;;;;;3.85;1.77;;;;;;;14.44;60.60;101296.06;5060098;28;20381;-57
2023/04/15 09:23:57;;;;;;;4.60;1.90;;;;;;;14.44;60.78;101304.94;5059291;28;20106;-57
2023/04/15 09:26:34;;;;;;;2.03;1.52;;;;;;;14.45;60.74;101309.34;5056838;28;20033;-57
2023/04/15 09:29:07;;;;;;;2.53;1.90;;;;;;;14.45;60.39;101308.50;5062193;28;20037;-57
2023/04/15 09:31:32;;;;;;;12.55;2.53;;;;;;;14.44;60.31;101312.97;5063413;28;20489;-57
2023/04/15 09:33:58;;;;;;;7.90;2.90;;;;;;;14.45;60.79;101320.06;5056778;28;20039;-57
2023/04/15 09:36:28;;;;;;;12.32;3.15;;;;;;;14.46;60.59;101321.75;5061148;28;20052;-57
2023/04/15 09:38:58;;;;;;;12.00;2.72;;;;;;;14.46;60.53;101324.44;5052037;28;20513;-56
2023/04/15 09:41:25;;;;;;;25.90;4.05;;;;;;;14.46;60.52;101318.22;5060154;28;20459;-57
2023/04/15 09:43:51;;;;;;;25.63;5.55;;;;;;;14.48;61.12;101324.34;5059251;28;20020;-57
2023/04/15 09:46:16;;;;;;;39.88;6.00;;;;;;;14.48;60.66;101321.66;5059699;28;20087;-56
2023/04/15 09:48:41;;;;;;;22.45;4.30;;;;;;;14.48;61.00;101318.97;5058644;28;20170;-57
2023/04/15 09:51:07;;;;;;;20.73;4.28;;;;;;;14.47;60.66;101320.81;5066435;28;20032;-57
2023/04/15 09:53:34;;;;;;;17.98;3.60;;;;;;;14.49;60.69;101320.69;5064278;28;20063;-56
2023/04/15 09:56:01;;;;;;;18.05;4.25;;;;;;;14.49;60.82;101328.75;5061652;28;20028;-57
2023/04/15 09:58:32;;;;;;;16.02;4.00;;;;;;;14.50;60.81;101338.47;5065275;28;20423;-56
2023/04/15 10:00:59;;;;;;;13.63;3.78;;;;;;;14.51;60.57;101329.47;5060096;28;20048;-57
2023/04/15 10:03:30;;;;;;;21.98;3.40;;;;;;;14.51;60.75;101332.16;5034970;28;20539;-57
2023/04/15 10:05:57;;;;;;;17.13;3.40;;;;;;;14.52;60.13;101333.00;5059916;28;20128;-57
2023/04/15 10:08:25;;;;;;;15.23;3.20;;;;;;;14.52;60.36;101344.56;5065572;28;20461;-56
2023/04/15 10:10:51;;;;;;;12.93;3.83;;;;;;;14.51;60.46;101334.84;5043510;28;20078;-57
2023/04/15 10:13:22;;;;;;;12.43;3.25;;;;;;;14.53;60.14;101340.09;5066189;28;20074;-57
2023/04/15 10:16:05;;;;;;;13.65;2.65;;;;;;;14.54;60.12;101339.97;5064228;28;20051;-57
2023/04/15 10:18:34;;;;;;;11.13;3.00;;;;;;;14.54;60.31;101339.09;5064706;28;20047;-55
2023/04/15 10:21:00;;;;;;;11.63;3.40;;;;;;;14.54;60.53;101342.63;5062832;28;20040;-55
2023/04/15 10:23:26;;;;;;;22.63;5.38;;;;;;;14.54;60.60;101349.81;5061289;28;20037;-55
2023/04/15 10:25:56;;;;;;;19.50;4.50;;;;;;;14.55;60.38;101346.19;5065480;28;20037;-55
2023/04/15 10:28:21;;;;;;;13.45;3.45;;;;;;;14.55;60.36;101346.19;5059218;28;20025;-55
2023/04/15 10:30:48;;;;;;;16.70;3.70;;;;;;;14.56;60.74;101353.25;5066543;28;20078;-55
2023/04/15 10:33:18;;;;;;;12.82;3.38;;;;;;;14.56;60.16;101361.28;5058068;28;20067;-55
2023/04/15 10:35:46;;;;;;;14.40;3.78;;;;;;;14.55;60.31;101360.44;5066541;28;20020;-56
2023/04/15 10:38:43;;;;;;;16.30;3.63;;;;;;;14.57;60.35;101371.94;5059202;28;20036;-55
2023/04/15 10:41:17;;;;;;;15.75;3.63;;;;;;;14.57;60.62;101363.91;5068759;28;20489;-55
2023/04/15 10:43:52;;;;;;;11.90;3.58;;;;;;;14.58;60.38;101362.06;5057509;28;20024;-55
2023/04/15 10:46:22;;;;;;;22.48;3.95;;;;;;;14.58;60.34;101360.25;5056642;28;20052;-55
2023/04/15 10:48:50;;;;;;;15.25;4.13;;;;;;;14.58;60.74;101357.59;5061962;28;20497;-55
2023/04/15 10:51:16;;;;;;;12.60;3.85;;;;;;;14.61;60.69;101367.22;5061573;28;20032;-55
2023/04/15 10:53:41;;;;;;;17.20;3.55;;;;;;;14.60;60.97;101366.38;5043063;28;20043;-55
2023/04/15 10:56:08;;;;;;;19.15;3.58;;;;;;;14.60;60.90;101366.38;5062681;28;20099;-55
2023/04/15 10:58:41;;;;;;;24.15;4.50;;;;;;;14.62;60.81;101371.59;5068465;28;20107;-55
2023/04/15 11:01:07;;;;;;;25.08;5.03;;;;;;;14.61;60.96;101377.94;5066085;28;20032;-55
2023/04/15 11:03:38;;;;;;;17.95;4.40;;;;;;;14.62;60.95;101374.28;5065289;28;20411;-55
2023/04/15 11:06:05;;;;;;;13.65;4.40;;;;;;;14.63;60.83;101384.88;5063965;28;20040;-55
2023/04/15 11:08:53;;;;;;;21.08;4.38;;;;;;;14.64;60.90;101381.25;5061890;28;20468;-55
2023/04/15 11:11:19;;;;;;;21.98;5.20;;;;;;;14.64;61.08;101372.31;5058354;28;20017;-55
2023/04/15 11:13:50;;;;;;;24.90;4.45;;;;;;;14.64;61.20;101372.31;5070657;28;21271;-55
2023/04/15 11:16:16;;;;;;;21.02;4.10;;;;;;;14.64;61.28;101377.69;5063758;28;20033;-55
2023/04/15 11:18:41;;;;;;;18.45;4.10;;;;;;;14.64;61.41;101383.06;5070285;28;20073;-55
2023/04/15 11:21:08;;;;;;;16.98;4.60;;;;;;;14.64;61.38;101377.69;5067628;28;20028;-55